createdAt,value
2022-09-10T00:00:44.682Z,1013.83
2022-09-10T00:01:44.791Z,1013.82
2022-09-10T00:02:44.716Z,1013.83
2022-09-10T00:03:44.693Z,1013.86
2022-09-10T00:04:44.709Z,1013.86
2022-09-10T00:05:44.682Z,1013.86
2022-09-10T00:06:44.676Z,1013.87
2022-09-10T00:07:44.682Z,1013.87
2022-09-10T00:08:44.689Z,1013.86
2022-09-10T00:09:44.681Z,1013.86
2022-09-10T00:10:44.738Z,1013.87
2022-09-10T00:11:44.684Z,1013.82
2022-09-10T00:12:44.679Z,1013.82
2022-09-10T00:13:44.693Z,1013.82
2022-09-10T00:14:44.678Z,1013.8
2022-09-10T00:15:44.678Z,1013.84
2022-09-10T00:16:44.678Z,1013.84
2022-09-10T00:17:44.680Z,1013.8
2022-09-10T00:18:44.704Z,1013.84
2022-09-10T00:19:44.700Z,1013.84
2022-09-10T00:20:44.679Z,1013.86
2022-09-10T00:21:44.687Z,1013.82
2022-09-10T00:22:44.692Z,1013.83
2022-09-10T00:23:44.704Z,1013.83
2022-09-10T00:24:44.686Z,1013.83
2022-09-10T00:25:44.683Z,1013.8
2022-09-10T00:26:44.685Z,1013.79
2022-09-10T00:27:44.682Z,1013.72
2022-09-10T00:28:44.696Z,1013.8
2022-09-10T00:29:44.677Z,1013.78
2022-09-10T00:30:44.689Z,1013.77
2022-09-10T00:31:44.720Z,1013.76
2022-09-10T00:32:44.677Z,1013.77
2022-09-10T00:33:44.691Z,1013.82
2022-09-10T00:34:44.699Z,1013.81
2022-09-10T00:35:44.696Z,1013.79
2022-09-10T00:36:44.684Z,1013.83
2022-09-10T00:37:44.681Z,1013.8
2022-09-10T00:38:44.693Z,1013.79
2022-09-10T00:39:44.707Z,1013.79
2022-09-10T00:40:44.683Z,1013.79
2022-09-10T00:41:44.699Z,1013.76
2022-09-10T00:42:44.682Z,1013.77
2022-09-10T00:43:44.722Z,1013.81
2022-09-10T00:44:44.693Z,1013.83
2022-09-10T00:45:44.735Z,1013.83
2022-09-10T00:46:44.675Z,1013.8
2022-09-10T00:47:44.674Z,1013.82
2022-09-10T00:48:44.683Z,1013.81
2022-09-10T00:49:44.695Z,1013.78
2022-09-10T00:50:44.677Z,1013.78
2022-09-10T00:51:44.686Z,1013.83
2022-09-10T00:52:44.680Z,1013.8
2022-09-10T00:53:44.699Z,1013.8
2022-09-10T00:54:44.682Z,1013.8
2022-09-10T00:55:44.677Z,1013.8
2022-09-10T00:56:44.675Z,1013.81
2022-09-10T00:57:44.673Z,1013.81
2022-09-10T00:58:44.691Z,1013.77
2022-09-10T00:59:44.693Z,1013.77
2022-09-10T01:00:44.711Z,1013.77
2022-09-10T01:01:44.706Z,1013.8
2022-09-10T01:02:44.680Z,1013.81
2022-09-10T01:03:44.697Z,1013.87
2022-09-10T01:04:44.695Z,1013.87
2022-09-10T01:05:44.679Z,1013.86
2022-09-10T01:06:44.678Z,1013.93
2022-09-10T01:07:44.674Z,1014.03
2022-09-10T01:08:44.694Z,1014.03
2022-09-10T01:09:44.680Z,1014.03
2022-09-10T01:10:44.677Z,1014.05
2022-09-10T01:11:44.678Z,1014.09
2022-09-10T01:12:44.676Z,1014.12
2022-09-10T01:13:44.704Z,1014.1
2022-09-10T01:14:44.682Z,1014.12
2022-09-10T01:15:44.683Z,1014.14
2022-09-10T01:16:44.681Z,1014.11
2022-09-10T01:17:44.680Z,1014.13
2022-09-10T01:18:44.688Z,1014.17
2022-09-10T01:19:44.694Z,1014.13
2022-09-10T01:20:44.684Z,1014.17
2022-09-10T01:21:44.676Z,1014.17
2022-09-10T01:22:44.680Z,1014.13
2022-09-10T01:23:44.689Z,1014.07
2022-09-10T01:24:44.688Z,1014.09
2022-09-10T01:25:44.678Z,1014.06
2022-09-10T01:26:44.695Z,1014.04
2022-09-10T01:27:44.680Z,1014.03
2022-09-10T01:28:44.684Z,1013.83
2022-09-10T01:29:44.685Z,1013.84
2022-09-10T01:30:44.686Z,1013.82
2022-09-10T01:31:44.737Z,1013.82
2022-09-10T01:32:44.682Z,1013.86
2022-09-10T01:33:44.696Z,1013.84
2022-09-10T01:34:44.698Z,1013.88
2022-09-10T01:35:44.692Z,1013.86
2022-09-10T01:36:44.677Z,1013.89
2022-09-10T01:37:44.676Z,1013.88
2022-09-10T01:38:44.689Z,1013.91
2022-09-10T01:39:44.707Z,1013.92
2022-09-10T01:40:44.722Z,1013.94
2022-09-10T01:41:44.681Z,1013.91
2022-09-10T01:42:44.683Z,1013.93
2022-09-10T01:43:44.866Z,1013.9
2022-09-10T01:44:44.680Z,1013.89
2022-09-10T01:45:44.701Z,1013.89
2022-09-10T01:46:44.682Z,1013.93
2022-09-10T01:47:44.680Z,1014.08
2022-09-10T01:48:44.699Z,1014.06
2022-09-10T01:49:44.696Z,1013.94
2022-09-10T01:50:44.681Z,1013.91
2022-09-10T01:51:44.675Z,1013.9
2022-09-10T01:52:44.676Z,1013.87
2022-09-10T01:53:44.693Z,1013.93
2022-09-10T01:54:44.676Z,1013.89
2022-09-10T01:55:44.683Z,1013.88
2022-09-10T01:56:44.681Z,1013.88
2022-09-10T01:57:44.694Z,1013.82
2022-09-10T01:58:44.699Z,1013.82
2022-09-10T01:59:44.678Z,1013.8
2022-09-10T02:00:44.738Z,1013.84
2022-09-10T02:04:44.707Z,1014.05
2022-09-10T02:05:44.680Z,1013.83
2022-09-10T02:06:44.689Z,1013.8
2022-09-10T02:07:44.690Z,1013.86
2022-09-10T02:08:44.672Z,1013.87
2022-09-10T02:09:44.686Z,1013.87
2022-09-10T02:10:44.688Z,1013.92
2022-09-10T02:11:44.680Z,1013.88
2022-09-10T02:12:44.679Z,1013.86
2022-09-10T02:13:44.679Z,1013.82
2022-09-10T02:14:44.683Z,1013.86
2022-09-10T02:15:44.679Z,1013.87
2022-09-10T02:16:44.673Z,1013.82
2022-09-10T02:17:44.684Z,1013.88
2022-09-10T02:18:44.678Z,1013.86
2022-09-10T02:19:44.714Z,1013.88
2022-09-10T02:20:44.688Z,1013.91
2022-09-10T02:21:44.681Z,1013.9
2022-09-10T02:22:44.680Z,1013.87
2022-09-10T02:23:44.690Z,1013.87
2022-09-10T02:24:44.686Z,1013.88
2022-09-10T02:25:44.689Z,1013.83
2022-09-10T02:26:44.679Z,1013.89
2022-09-10T02:27:44.692Z,1013.89
2022-09-10T02:28:44.687Z,1013.92
2022-09-10T02:29:44.682Z,1013.91
2022-09-10T02:30:44.680Z,1013.89
2022-09-10T02:31:44.869Z,1013.88
2022-09-10T02:32:44.681Z,1013.84
2022-09-10T02:33:44.675Z,1013.86
2022-09-10T02:34:44.698Z,1013.84
2022-09-10T02:35:44.682Z,1014.06
2022-09-10T02:36:44.677Z,1014.04
2022-09-10T02:37:44.686Z,1014.03
2022-09-10T02:38:44.678Z,1014
2022-09-10T02:39:44.746Z,1013.97
2022-09-10T02:40:44.685Z,1013.95
2022-09-10T02:41:44.675Z,1014
2022-09-10T02:42:44.684Z,1014.01
2022-09-10T02:43:44.686Z,1013.79
2022-09-10T02:44:44.732Z,1013.97
2022-09-10T02:45:44.798Z,1014
2022-09-10T02:46:44.685Z,1013.93
2022-09-10T02:47:44.678Z,1013.97
2022-09-10T02:48:44.676Z,1014
2022-09-10T02:49:44.708Z,1013.98
2022-09-10T02:50:44.679Z,1013.95
2022-09-10T02:51:44.684Z,1014
2022-09-10T02:52:44.676Z,1014.02
2022-09-10T02:53:44.678Z,1013.95
2022-09-10T02:54:44.684Z,1013.98
2022-09-10T02:55:44.672Z,1014.03
2022-09-10T02:56:44.670Z,1014.03
2022-09-10T02:57:44.673Z,1014.03
2022-09-10T02:58:44.675Z,1014.06
2022-09-10T02:59:44.690Z,1014.04
2022-09-10T03:00:44.702Z,1014.05
2022-09-10T03:01:44.750Z,1014.04
2022-09-10T03:02:44.675Z,1014.01
2022-09-10T03:03:44.667Z,1014.05
2022-09-10T03:04:44.703Z,1014.01
2022-09-10T03:05:44.672Z,1014.01
2022-09-10T03:06:44.684Z,1014
2022-09-10T03:07:44.670Z,1013.96
2022-09-10T03:08:44.672Z,1013.91
2022-09-10T03:09:44.693Z,1013.91
2022-09-10T03:10:44.672Z,1013.96
2022-09-10T03:11:44.669Z,1013.92
2022-09-10T03:12:44.669Z,1013.91
2022-09-10T03:13:44.665Z,1013.89
2022-09-10T03:14:44.701Z,1013.92
2022-09-10T03:15:44.683Z,1013.93
2022-09-10T03:16:44.690Z,1013.93
2022-09-10T03:17:44.671Z,1013.93
2022-09-10T03:18:44.676Z,1013.88
2022-09-10T03:19:44.701Z,1013.86
2022-09-10T03:20:44.669Z,1013.87
2022-09-10T03:21:44.669Z,1013.87
2022-09-10T03:22:44.668Z,1013.89
2022-09-10T03:23:44.775Z,1013.92
2022-09-10T03:24:44.677Z,1013.93
2022-09-10T03:25:49.071Z,1013.96
2022-09-10T03:26:44.662Z,1013.95
2022-09-10T03:27:44.683Z,1013.97
2022-09-10T03:28:44.669Z,1013.93
2022-09-10T03:29:44.684Z,1013.98
2022-09-10T03:30:44.669Z,1014.01
2022-09-10T03:31:44.732Z,1013.96
2022-09-10T03:32:44.669Z,1013.93
2022-09-10T03:33:44.671Z,1013.95
2022-09-10T03:34:44.700Z,1013.97
2022-09-10T03:35:44.697Z,1013.95
2022-09-10T03:36:44.667Z,1013.98
2022-09-10T03:37:44.672Z,1014.03
2022-09-10T03:38:44.670Z,1014.02
2022-09-10T03:39:44.772Z,1014
2022-09-10T03:40:44.690Z,1013.98
2022-09-10T03:41:44.673Z,1013.96
2022-09-10T03:42:44.672Z,1014.01
2022-09-10T03:43:44.705Z,1014.03
2022-09-10T03:44:44.693Z,1014
2022-09-10T03:45:44.707Z,1013.95
2022-09-10T03:46:44.670Z,1014.01
2022-09-10T03:47:44.672Z,1014.01
2022-09-10T03:48:44.680Z,1014
2022-09-10T03:49:44.697Z,1014.01
2022-09-10T03:50:44.667Z,1013.97
2022-09-10T03:51:44.674Z,1013.98
2022-09-10T03:52:44.664Z,1014.02
2022-09-10T03:53:44.681Z,1013.96
2022-09-10T03:54:44.689Z,1013.97
2022-09-10T03:55:44.667Z,1013.97
2022-09-10T03:56:44.679Z,1014
2022-09-10T03:57:44.666Z,1013.97
2022-09-10T03:58:44.670Z,1013.98
2022-09-10T03:59:44.690Z,1014
2022-09-10T04:00:44.702Z,1014.02
2022-09-10T04:01:44.671Z,1014.01
2022-09-10T04:02:44.677Z,1013.95
2022-09-10T04:03:44.679Z,1013.98
2022-09-10T04:04:44.709Z,1013.95
2022-09-10T04:05:44.667Z,1013.96
2022-09-10T04:06:44.668Z,1013.9
2022-09-10T04:07:44.679Z,1013.92
2022-09-10T04:08:44.669Z,1013.94
2022-09-10T04:09:44.689Z,1013.94
2022-09-10T04:10:44.672Z,1014
2022-09-10T04:11:44.673Z,1013.93
2022-09-10T04:12:44.677Z,1013.95
2022-09-10T04:13:44.672Z,1013.93
2022-09-10T04:14:44.694Z,1013.92
2022-09-10T04:15:44.676Z,1013.92
2022-09-10T04:16:44.781Z,1013.93
2022-09-10T04:17:44.679Z,1013.97
2022-09-10T04:18:44.673Z,1013.97
2022-09-10T04:19:44.702Z,1013.94
2022-09-10T04:20:44.678Z,1013.96
2022-09-10T04:21:44.678Z,1013.98
2022-09-10T04:22:44.674Z,1013.98
2022-09-10T04:23:44.679Z,1014.01
2022-09-10T04:24:44.698Z,1014.02
2022-09-10T04:25:44.683Z,1014.04
2022-09-10T04:26:44.678Z,1014.05
2022-09-10T04:27:44.681Z,1014.09
2022-09-10T04:28:44.685Z,1014.03
2022-09-10T04:29:44.688Z,1014.05
2022-09-10T04:30:44.678Z,1014.09
2022-09-10T04:31:44.794Z,1014.07
2022-09-10T04:32:44.698Z,1014.14
2022-09-10T04:33:44.673Z,1014.14
2022-09-10T04:34:44.704Z,1014.17
2022-09-10T04:35:44.674Z,1014.17
2022-09-10T04:36:44.686Z,1014.1
2022-09-10T04:37:44.671Z,1014.14
2022-09-10T04:38:44.680Z,1014.13
2022-09-10T04:39:44.747Z,1014.16
2022-09-10T04:40:44.688Z,1014.18
2022-09-10T04:41:44.679Z,1014.16
2022-09-10T04:42:44.676Z,1014.15
2022-09-10T04:43:44.676Z,1014.14
2022-09-10T04:44:44.854Z,1014.12
2022-09-10T04:45:44.736Z,1014.13
2022-09-10T04:46:44.677Z,1014.12
2022-09-10T04:47:44.679Z,1014.11
2022-09-10T04:48:44.672Z,1014.12
2022-09-10T04:49:44.709Z,1014.1
2022-09-10T04:51:05.534Z,1014.14
2022-09-10T04:51:44.670Z,1014.11
2022-09-10T04:52:44.672Z,1014.11
2022-09-10T04:53:44.691Z,1014.12
2022-09-10T04:54:44.694Z,1014.11
2022-09-10T04:55:44.677Z,1014.12
2022-09-10T04:56:44.678Z,1014.13
2022-09-10T04:57:44.679Z,1014.11
2022-09-10T04:58:45.188Z,1014.1
2022-09-10T04:59:44.688Z,1014.1
2022-09-10T05:00:44.702Z,1014.07
2022-09-10T05:01:44.681Z,1014.05
2022-09-10T05:02:44.683Z,1014.09
2022-09-10T05:03:44.670Z,1014.08
2022-09-10T05:04:44.707Z,1014.1
2022-09-10T05:05:44.676Z,1014.18
2022-09-10T05:06:44.683Z,1014.11
2022-09-10T05:07:44.675Z,1014.15
2022-09-10T05:08:44.682Z,1014.17
2022-09-10T05:09:44.688Z,1014.17
2022-09-10T05:10:44.672Z,1014.18
2022-09-10T05:11:44.679Z,1014.15
2022-09-10T05:12:44.676Z,1014.17
2022-09-10T05:13:44.675Z,1014.07
2022-09-10T05:14:44.684Z,1014.13
2022-09-10T05:15:44.665Z,1014.14
2022-09-10T05:16:44.729Z,1014.09
2022-09-10T05:17:44.666Z,1014.07
2022-09-10T05:18:44.671Z,1014.1
2022-09-10T05:19:44.702Z,1014.06
2022-09-10T05:20:44.666Z,1014.04
2022-09-10T05:21:44.678Z,1014.07
2022-09-10T05:22:44.665Z,1014.07
2022-09-10T05:23:44.673Z,1014.05
2022-09-10T05:24:44.686Z,1014.06
2022-09-10T05:25:44.671Z,1014.05
2022-09-10T05:26:44.666Z,1014.06
2022-09-10T05:27:44.666Z,1014.05
2022-09-10T05:28:44.662Z,1014.08
2022-09-10T05:29:44.687Z,1014.01
2022-09-10T05:30:48.250Z,1013.95
2022-09-10T05:31:44.680Z,1013.95
2022-09-10T05:32:44.664Z,1013.96
2022-09-10T05:33:44.667Z,1013.98
2022-09-10T05:34:44.692Z,1013.96
2022-09-10T05:35:44.673Z,1013.98
2022-09-10T05:36:44.667Z,1013.96
2022-09-10T05:37:44.667Z,1013.98
2022-09-10T05:38:44.945Z,1014
2022-09-10T05:39:44.742Z,1014.05
2022-09-10T05:40:44.661Z,1014
2022-09-10T05:41:44.674Z,1014.04
2022-09-10T05:42:44.672Z,1013.96
2022-09-10T05:43:44.673Z,1013.96
2022-09-10T05:44:44.687Z,1013.95
2022-09-10T05:45:44.732Z,1013.93
2022-09-10T05:46:44.674Z,1013.9
2022-09-10T05:47:44.666Z,1013.93
2022-09-10T06:30:49.716Z,1013.77
2022-09-10T06:31:44.676Z,1013.78
2022-09-10T06:32:44.667Z,1013.78
2022-09-10T06:33:44.666Z,1013.77
2022-09-10T06:34:44.665Z,1013.76
2022-09-10T06:35:44.662Z,1013.76
2022-09-10T06:36:44.671Z,1013.76
2022-09-10T06:37:44.662Z,1013.76
2022-09-10T06:38:44.672Z,1013.76
2022-09-10T06:39:44.748Z,1013.76
2022-09-10T06:40:44.665Z,1013.78
2022-09-10T06:41:49.073Z,1013.78
2022-09-10T06:42:44.668Z,1013.76
2022-09-10T06:43:44.662Z,1013.73
2022-09-10T06:44:44.662Z,1013.78
2022-09-10T06:45:44.702Z,1013.74
2022-09-10T06:47:28.225Z,1013.76
2022-09-10T06:48:37.591Z,1013.8
2022-09-10T06:48:48.008Z,1013.84
2022-09-10T06:49:44.666Z,1013.81
2022-09-10T06:50:52.629Z,1013.79
2022-09-10T06:51:51.034Z,1013.75
2022-09-10T06:52:51.021Z,1013.74
2022-09-10T06:53:51.009Z,1013.74
2022-09-10T06:54:50.997Z,1013.75
2022-09-10T06:55:51.019Z,1013.76
2022-09-10T06:56:51.030Z,1013.77
2022-09-10T06:57:51.005Z,1013.76
2022-09-10T06:58:50.996Z,1013.72
2022-09-10T06:59:51.008Z,1013.75
2022-09-10T07:00:51.053Z,1013.67
2022-09-10T07:01:51.088Z,1013.68
2022-09-10T07:02:50.992Z,1013.68
2022-09-10T07:03:51.003Z,1013.66
2022-09-10T07:04:50.996Z,1013.66
2022-09-10T07:05:51.004Z,1013.66
2022-09-10T07:06:51.027Z,1013.72
2022-09-10T07:07:51.009Z,1013.69
2022-09-10T07:08:51.012Z,1013.69
2022-09-10T07:09:50.998Z,1013.72
2022-09-10T07:10:50.999Z,1013.72
2022-09-10T07:11:51.011Z,1013.7
2022-09-10T07:12:51.010Z,1013.7
2022-09-10T07:13:50.998Z,1013.68
2022-09-10T07:14:51.005Z,1013.66
2022-09-10T07:15:51.046Z,1013.68
2022-09-10T07:16:51.029Z,1013.64
2022-09-10T07:17:51.026Z,1013.62
2022-09-10T07:18:51.002Z,1013.61
2022-09-10T07:19:51.007Z,1013.67
2022-09-10T07:20:51.006Z,1013.64
2022-09-10T07:21:51.038Z,1013.64
2022-09-10T07:22:51.003Z,1013.84
2022-09-10T07:23:51.006Z,1013.83
2022-09-10T07:24:51.027Z,1013.88
2022-09-10T07:25:51.003Z,1013.88
2022-09-10T07:26:51.016Z,1013.86
2022-09-10T07:27:51.000Z,1013.93
2022-09-10T07:28:50.999Z,1013.95
2022-09-10T07:29:51.026Z,1014
2022-09-10T07:30:51.116Z,1014
2022-09-10T07:31:51.028Z,1013.96
2022-09-10T07:32:50.998Z,1013.93
2022-09-10T07:33:50.998Z,1013.95
2022-09-10T07:34:50.997Z,1013.95
2022-09-10T07:35:50.991Z,1013.91
2022-09-10T07:36:51.014Z,1013.95
2022-09-10T07:37:50.997Z,1013.87
2022-09-10T07:38:51.006Z,1013.86
2022-09-10T07:39:51.040Z,1013.88
2022-09-10T07:40:51.004Z,1013.88
2022-09-10T07:41:51.035Z,1013.82
2022-09-10T07:42:50.997Z,1013.83
2022-09-10T07:43:50.997Z,1013.83
2022-09-10T07:44:50.994Z,1013.85
2022-09-10T07:45:51.056Z,1013.85
2022-09-10T07:46:51.018Z,1013.87
2022-09-10T07:47:50.999Z,1013.84
2022-09-10T07:48:50.998Z,1013.84
2022-09-10T07:49:50.990Z,1013.88
2022-09-10T07:50:50.994Z,1013.88
2022-09-10T07:51:51.011Z,1013.89
2022-09-10T07:52:50.997Z,1013.87
2022-09-10T07:53:51.041Z,1013.87
2022-09-10T07:54:50.993Z,1013.93
2022-09-10T07:55:50.997Z,1013.89
2022-09-10T07:56:51.003Z,1013.91
2022-09-10T07:57:51.009Z,1013.89
2022-09-10T07:58:50.993Z,1013.89
2022-09-10T07:59:50.998Z,1013.89
2022-09-10T08:00:50.996Z,1013.82
2022-09-10T08:01:51.031Z,1013.86
2022-09-10T08:02:50.998Z,1013.86
2022-09-10T08:03:50.994Z,1013.87
2022-09-10T08:04:50.992Z,1013.93
2022-09-10T08:05:50.988Z,1013.93
2022-09-10T08:06:51.034Z,1013.93
2022-09-10T08:07:50.995Z,1013.89
2022-09-10T08:08:50.996Z,1013.88
2022-09-10T08:09:50.990Z,1013.86
2022-09-10T08:10:51.006Z,1013.93
2022-09-10T08:11:51.006Z,1013.93
2022-09-10T08:12:50.985Z,1013.93
2022-09-10T08:13:50.989Z,1013.9
2022-09-10T08:14:51.004Z,1013.9
2022-09-10T08:15:51.081Z,1013.9
2022-09-10T08:16:51.004Z,1013.9
2022-09-10T08:17:50.988Z,1013.89
2022-09-10T08:18:51.005Z,1013.91
2022-09-10T08:19:51.006Z,1013.94
2022-09-10T08:20:50.990Z,1013.94
2022-09-10T08:21:51.004Z,1013.9
2022-09-10T08:22:50.993Z,1013.94
2022-09-10T08:23:51.115Z,1013.94
2022-09-10T08:24:50.991Z,1013.97
2022-09-10T08:25:50.990Z,1013.9
2022-09-10T08:26:51.006Z,1013.9
2022-09-10T08:27:51.004Z,1013.96
2022-09-10T08:28:50.989Z,1013.98
2022-09-10T08:29:50.996Z,1013.9
2022-09-10T08:30:51.069Z,1013.96
2022-09-10T08:31:51.019Z,1013.93
2022-09-10T08:32:50.995Z,1013.93
2022-09-10T08:33:50.995Z,1013.97
2022-09-10T08:34:51.002Z,1014.01
2022-09-10T08:35:50.990Z,1014.01
2022-09-10T08:36:51.014Z,1014.01
2022-09-10T08:37:51.003Z,1014.04
2022-09-10T08:38:51.003Z,1013.98
2022-09-10T08:39:51.026Z,1013.96
2022-09-10T09:49:51.030Z,1013.41
2022-09-10T09:50:50.995Z,1013.41
2022-09-10T09:51:50.997Z,1013.45
2022-09-10T09:52:51.010Z,1013.41
2022-09-10T09:54:00.958Z,1013.41
2022-09-10T09:55:12.516Z,1013.41
2022-09-10T09:55:50.994Z,1013.41
2022-09-10T09:56:51.005Z,1013.42
2022-09-10T09:57:50.996Z,1013.32
2022-09-10T09:58:50.996Z,1013.36
2022-09-10T09:59:50.993Z,1013.36
2022-09-10T10:00:51.003Z,1013.37
2022-09-10T10:01:51.074Z,1013.34
2022-09-10T10:02:51.012Z,1013.32
2022-09-10T10:03:50.994Z,1013.36
2022-09-10T10:04:51.012Z,1013.36
2022-09-10T10:05:50.996Z,1013.41
2022-09-10T10:06:50.998Z,1013.41
2022-09-10T10:07:51.005Z,1013.36
2022-09-10T10:08:50.996Z,1013.35
2022-09-10T10:09:51.004Z,1013.29
2022-09-10T10:10:50.995Z,1013.33
2022-09-10T10:11:50.997Z,1013.27
2022-09-10T10:12:51.022Z,1013.33
2022-09-10T10:13:50.991Z,1013.33
2022-09-10T10:14:51.004Z,1013.28
2022-09-10T10:15:51.025Z,1013.29
2022-09-10T10:16:50.996Z,1013.3
2022-09-10T10:17:51.021Z,1013.34
2022-09-10T10:18:50.991Z,1013.34
2022-09-10T10:19:50.997Z,1013.3
2022-09-10T10:20:50.997Z,1013.32
2022-09-10T10:21:51.004Z,1013.34
2022-09-10T10:22:51.018Z,1013.36
2022-09-10T10:23:50.993Z,1013.36
2022-09-10T10:24:50.997Z,1013.31
2022-09-10T10:25:50.991Z,1013.3
2022-09-10T10:26:50.986Z,1013.3
2022-09-10T10:27:51.005Z,1013.3
2022-09-10T10:28:50.996Z,1013.28
2022-09-10T10:29:50.983Z,1013.28
2022-09-10T10:30:51.040Z,1013.29
2022-09-10T10:31:50.998Z,1013.3
2022-09-10T10:32:51.008Z,1013.3
2022-09-10T10:33:50.990Z,1013.37
2022-09-10T10:34:50.998Z,1013.35
2022-09-10T10:35:50.989Z,1013.35
2022-09-10T10:36:50.993Z,1013.37
2022-09-10T10:37:51.012Z,1013.35
2022-09-10T10:38:51.007Z,1013.37
2022-09-10T10:39:51.036Z,1013.37
2022-09-10T10:40:50.995Z,1013.34
2022-09-10T10:41:50.983Z,1013.32
2022-09-10T10:42:50.997Z,1013.34
2022-09-10T10:43:50.995Z,1013.34
2022-09-10T10:44:50.986Z,1013.27
2022-09-10T10:45:50.996Z,1013.29
2022-09-10T10:46:50.989Z,1013.29
2022-09-10T10:47:51.022Z,1013.28
2022-09-10T10:48:50.988Z,1013.1
2022-09-10T10:49:50.989Z,1013.11
2022-09-10T10:50:52.897Z,1013.14
2022-09-10T10:51:50.981Z,1013.16
2022-09-10T10:52:51.006Z,1013.16
2022-09-10T10:53:50.985Z,1013.15
2022-09-10T10:54:50.984Z,1013.17
2022-09-10T10:55:50.987Z,1013.19
2022-09-10T10:56:50.996Z,1013.13
2022-09-10T10:57:51.001Z,1013.13
2022-09-10T10:58:54.107Z,1013.12
2022-09-10T10:59:50.994Z,1013.16
2022-09-10T11:00:50.981Z,1013.23
2022-09-10T11:01:51.083Z,1013.23
2022-09-10T11:02:51.011Z,1013.16
2022-09-10T11:03:50.990Z,1013.16
2022-09-10T11:04:50.990Z,1013.2
2022-09-10T11:05:50.983Z,1013.2
2022-09-10T11:06:50.986Z,1013.17
2022-09-10T11:07:51.002Z,1013.16
2022-09-10T11:08:50.989Z,1013.2
2022-09-10T11:09:50.984Z,1013.15
2022-09-10T11:10:50.987Z,1013.13
2022-09-10T11:11:50.996Z,1013.13
2022-09-10T11:12:50.995Z,1013.13
2022-09-10T11:13:50.997Z,1013.14
2022-09-10T11:14:50.996Z,1013.19
2022-09-10T11:15:51.030Z,1013.18
2022-09-10T11:16:54.230Z,1013.18
2022-09-10T11:17:51.007Z,1013.14
2022-09-10T11:18:50.999Z,1013.13
2022-09-10T11:20:05.315Z,1013.3
2022-09-10T11:20:50.980Z,1013.3
2022-09-10T11:21:50.980Z,1013.23
2022-09-10T11:22:51.005Z,1013.22
2022-09-10T11:23:50.997Z,1013.19
2022-09-10T11:24:50.985Z,1013.18
2022-09-10T11:25:50.997Z,1013.18
2022-09-10T11:26:50.991Z,1013.16
2022-09-10T11:27:50.996Z,1013.16
2022-09-10T11:28:50.992Z,1013.17
2022-09-10T11:29:51.002Z,1013.18
2022-09-10T11:30:51.033Z,1013.18
2022-09-10T11:31:50.992Z,1013.19
2022-09-10T11:32:50.997Z,1013.18
2022-09-10T11:33:51.007Z,1013.15
2022-09-10T11:34:50.983Z,1013.15
2022-09-10T11:35:50.988Z,1013.17
2022-09-10T11:36:50.985Z,1013.17
2022-09-10T11:37:51.011Z,1013.14
2022-09-10T11:38:50.997Z,1013.14
2022-09-10T11:39:51.014Z,1013.07
2022-09-10T11:40:50.986Z,1013.1
2022-09-10T11:41:50.980Z,1013.05
2022-09-10T11:42:50.999Z,1013.03
2022-09-10T11:43:50.995Z,1013.03
2022-09-10T11:44:50.992Z,1013.06
2022-09-10T11:45:50.987Z,1013.07
2022-09-10T11:46:50.989Z,1013.03
2022-09-10T11:47:51.022Z,1013.03
2022-09-10T11:48:50.994Z,1013.05
2022-09-10T11:49:51.025Z,1013.08
2022-09-10T11:50:50.993Z,1013.06
2022-09-10T11:51:50.981Z,1013.03
2022-09-10T11:52:51.028Z,1013.05
2022-09-10T11:53:50.983Z,1013.05
2022-09-10T11:54:50.989Z,1013.05
2022-09-10T11:55:50.990Z,1012.89
2022-09-10T11:56:50.991Z,1012.87
2022-09-10T11:57:51.015Z,1012.87
2022-09-10T11:58:51.002Z,1012.9
2022-09-10T11:59:50.993Z,1012.82
2022-09-10T12:00:50.986Z,1012.82
2022-09-10T12:01:51.026Z,1012.79
2022-09-10T12:02:51.000Z,1012.79
2022-09-10T12:03:51.020Z,1012.81
2022-09-10T12:04:50.994Z,1012.76
2022-09-10T12:05:50.981Z,1012.76
2022-09-10T12:06:50.989Z,1012.71
2022-09-10T12:07:50.996Z,1012.73
2022-09-10T12:08:51.005Z,1012.7
2022-09-10T12:09:50.989Z,1012.7
2022-09-10T12:10:50.982Z,1012.75
2022-09-10T12:11:50.989Z,1012.75
2022-09-10T12:12:51.022Z,1012.77
2022-09-10T12:13:50.990Z,1012.74
2022-09-10T12:14:50.999Z,1012.73
2022-09-10T12:15:51.001Z,1012.75
2022-09-10T12:16:50.992Z,1012.75
2022-09-10T12:17:51.010Z,1012.79
2022-09-10T12:18:50.994Z,1012.8
2022-09-10T12:19:50.990Z,1012.73
2022-09-10T12:20:50.982Z,1012.76
2022-09-10T12:21:50.992Z,1012.78
2022-09-10T12:22:51.008Z,1012.74
2022-09-10T12:23:50.981Z,1012.77
2022-09-10T12:24:50.978Z,1012.75
2022-09-10T12:25:50.983Z,1012.71
2022-09-10T12:26:50.991Z,1012.77
2022-09-10T12:27:51.008Z,1012.77
2022-09-10T12:28:50.988Z,1012.75
2022-09-10T12:29:50.983Z,1012.79
2022-09-10T12:30:51.048Z,1012.81
2022-09-10T12:31:50.993Z,1012.78
2022-09-10T12:32:50.994Z,1012.78
2022-09-10T12:33:50.989Z,1012.76
2022-09-10T12:34:50.981Z,1012.75
2022-09-10T12:35:50.989Z,1012.72
2022-09-10T12:36:50.992Z,1012.74
2022-09-10T12:37:50.998Z,1012.73
2022-09-10T12:38:50.982Z,1012.73
2022-09-10T12:39:51.038Z,1012.67
2022-09-10T12:40:50.981Z,1012.66
2022-09-10T12:41:50.980Z,1012.67
2022-09-10T12:42:50.995Z,1012.67
2022-09-10T12:43:50.987Z,1012.68
2022-09-10T12:44:50.980Z,1012.69
2022-09-10T12:45:51.016Z,1012.71
2022-09-10T12:46:50.982Z,1012.71
2022-09-10T12:47:51.163Z,1012.71
2022-09-10T12:48:50.995Z,1012.71
2022-09-10T12:49:50.989Z,1012.74
2022-09-10T12:50:50.983Z,1012.74
2022-09-10T12:51:50.991Z,1012.72
2022-09-10T12:52:50.998Z,1012.76
2022-09-10T12:53:50.994Z,1012.74
2022-09-10T12:54:50.996Z,1012.77
2022-09-10T12:55:50.992Z,1012.77
2022-09-10T12:56:50.986Z,1012.74
2022-09-10T12:57:51.002Z,1012.69
2022-09-10T12:58:51.008Z,1012.76
2022-09-10T12:59:50.986Z,1012.76
2022-09-10T13:00:50.988Z,1012.8
2022-09-10T13:01:51.112Z,1012.85
2022-09-10T13:02:51.010Z,1012.85
2022-09-10T13:03:50.986Z,1012.89
2022-09-10T13:04:51.001Z,1012.89
2022-09-10T13:05:50.981Z,1012.88
2022-09-10T13:06:50.987Z,1012.83
2022-09-10T13:07:50.996Z,1012.86
2022-09-10T13:08:50.991Z,1012.82
2022-09-10T13:09:50.989Z,1012.82
2022-09-10T13:10:50.983Z,1012.81
2022-09-10T13:11:50.985Z,1012.82
2022-09-10T13:12:51.019Z,1012.88
2022-09-10T13:13:50.983Z,1012.88
2022-09-10T13:14:50.981Z,1012.87
2022-09-10T13:15:51.037Z,1012.87
2022-09-10T13:16:50.982Z,1012.83
2022-09-10T13:17:51.028Z,1012.83
2022-09-10T13:18:55.061Z,1012.83
2022-09-10T13:19:50.983Z,1012.83
2022-09-10T13:20:50.982Z,1012.83
2022-09-10T13:21:50.994Z,1012.82
2022-09-10T13:22:51.002Z,1012.82
2022-09-10T13:23:50.992Z,1012.75
2022-09-10T13:24:50.999Z,1012.79
2022-09-10T13:25:50.992Z,1012.75
2022-09-10T13:26:50.986Z,1012.77
2022-09-10T13:27:51.015Z,1012.77
2022-09-10T13:28:50.984Z,1012.77
2022-09-10T13:29:50.985Z,1012.76
2022-09-10T13:30:51.038Z,1012.75
2022-09-10T13:31:50.988Z,1012.74
2022-09-10T13:32:51.001Z,1012.75
2022-09-10T13:33:50.993Z,1012.73
2022-09-10T13:34:50.989Z,1012.73
2022-09-10T13:35:50.985Z,1012.69
2022-09-10T13:36:50.983Z,1012.74
2022-09-10T13:37:51.005Z,1012.73
2022-09-10T13:38:50.989Z,1012.74
2022-09-10T13:39:51.012Z,1012.74
2022-09-10T13:40:50.979Z,1012.72
2022-09-10T13:41:50.986Z,1012.72
2022-09-10T13:42:50.999Z,1012.71
2022-09-10T13:43:50.983Z,1012.74
2022-09-10T13:44:50.991Z,1012.74
2022-09-10T13:45:51.098Z,1012.7
2022-09-10T13:46:50.992Z,1012.67
2022-09-10T13:47:51.005Z,1012.64
2022-09-10T13:48:50.982Z,1012.64
2022-09-10T13:49:50.980Z,1012.64
2022-09-10T13:50:50.988Z,1012.65
2022-09-10T13:51:50.982Z,1012.65
2022-09-10T13:52:51.015Z,1012.63
2022-09-10T13:53:50.986Z,1012.63
2022-09-10T13:54:50.991Z,1012.62
2022-09-10T13:55:50.989Z,1012.6
2022-09-10T13:56:50.998Z,1012.62
2022-09-10T13:57:50.997Z,1012.63
2022-09-10T13:58:50.985Z,1012.63
2022-09-10T13:59:50.985Z,1012.62
2022-09-10T14:00:50.988Z,1012.68
2022-09-10T14:01:51.079Z,1012.68
2022-09-10T14:02:51.070Z,1012.6
2022-09-10T14:03:50.981Z,1012.64